createdAt,value
2018-05-04T00:01:36.248Z,17.94
2018-05-04T00:04:03.801Z,17.99
2018-05-04T00:06:31.534Z,18.07
2018-05-04T00:08:59.069Z,18.03
2018-05-04T00:11:26.618Z,18.10
2018-05-04T00:13:54.213Z,18.11
2018-05-04T00:16:21.751Z,18.07
2018-05-04T00:18:49.320Z,18.04
2018-05-04T00:21:16.888Z,18.05
2018-05-04T00:23:44.435Z,18.03
2018-05-04T00:26:11.995Z,18.03
2018-05-04T00:28:39.572Z,18.03
2018-05-04T00:31:07.115Z,18.00
2018-05-04T00:33:34.667Z,17.96
2018-05-04T00:36:02.231Z,17.93
2018-05-04T00:38:29.774Z,17.78
2018-05-04T00:40:57.337Z,17.72
2018-05-04T00:43:25.135Z,17.66
2018-05-04T00:45:52.645Z,17.62
2018-05-04T00:48:20.183Z,17.48
2018-05-04T00:50:48.227Z,17.41
2018-05-04T00:53:15.770Z,17.35
2018-05-04T00:55:43.307Z,17.35
2018-05-04T00:58:11.174Z,17.26
2018-05-04T01:00:38.707Z,17.33
2018-05-04T01:03:06.256Z,17.51
2018-05-04T01:05:33.835Z,17.70
2018-05-04T01:08:01.404Z,17.92
2018-05-04T01:10:28.943Z,18.01
2018-05-04T01:12:56.662Z,18.05
2018-05-04T01:15:24.216Z,18.09
2018-05-04T01:17:51.765Z,18.14
2018-05-04T01:20:19.440Z,18.14
2018-05-04T01:22:46.989Z,18.11
2018-05-04T01:25:14.536Z,18.09
2018-05-04T01:27:42.115Z,18.11
2018-05-04T01:30:09.665Z,18.01
2018-05-04T01:32:37.221Z,17.79
2018-05-04T01:35:04.947Z,17.62
2018-05-04T01:37:32.502Z,17.47
2018-05-04T01:40:00.076Z,17.25
2018-05-04T01:42:27.628Z,17.16
2018-05-04T01:44:55.190Z,17.10
2018-05-04T01:47:22.744Z,17.01
2018-05-04T01:49:50.317Z,16.99
2018-05-04T01:52:17.869Z,16.94
2018-05-04T01:54:45.412Z,16.91
2018-05-04T01:57:12.989Z,16.83
2018-05-04T01:59:40.528Z,16.80
2018-05-04T02:02:08.070Z,16.77
2018-05-04T02:04:35.697Z,16.75
2018-05-04T02:07:03.251Z,16.74
2018-05-04T02:09:30.795Z,16.74
2018-05-04T02:11:58.355Z,16.73
2018-05-04T02:14:25.919Z,16.73
2018-05-04T02:16:53.619Z,16.75
2018-05-04T02:19:21.180Z,16.75
2018-05-04T02:21:48.715Z,16.75
2018-05-04T02:24:16.277Z,16.74
2018-05-04T02:26:43.826Z,16.67
2018-05-04T02:29:11.364Z,16.57
2018-05-04T02:31:39.059Z,16.51
2018-05-04T02:34:06.596Z,16.49
2018-05-04T02:36:34.143Z,16.49
2018-05-04T02:39:01.720Z,16.45
2018-05-04T02:41:29.269Z,16.41
2018-05-04T02:43:56.837Z,16.34
2018-05-04T02:46:24.496Z,16.36
2018-05-04T02:48:52.033Z,16.35
2018-05-04T02:51:19.589Z,16.30
2018-05-04T02:53:47.196Z,16.35
2018-05-04T02:56:14.733Z,16.39
2018-05-04T02:58:42.285Z,16.33
2018-05-04T03:01:09.863Z,16.24
2018-05-04T03:03:37.437Z,16.17
2018-05-04T03:06:04.987Z,16.19
2018-05-04T03:08:32.560Z,16.21
2018-05-04T03:11:00.110Z,16.22
2018-05-04T03:13:27.670Z,16.19
2018-05-04T03:15:55.284Z,16.14
2018-05-04T03:18:22.837Z,16.12
2018-05-04T03:20:50.377Z,16.21
2018-05-04T03:23:17.954Z,16.30
2018-05-04T03:25:45.505Z,16.38
2018-05-04T03:28:13.056Z,16.51
2018-05-04T03:30:40.775Z,16.62
2018-05-04T03:33:08.325Z,16.72
2018-05-04T03:35:35.878Z,16.87
2018-05-04T03:38:03.448Z,17.03
2018-05-04T03:40:31.004Z,17.17
2018-05-04T03:42:58.629Z,17.27
2018-05-04T03:45:26.259Z,17.37
2018-05-04T03:47:53.823Z,17.35
2018-05-04T03:50:21.388Z,17.14
2018-05-04T03:52:49.068Z,17.03
2018-05-04T03:55:16.617Z,16.90
2018-05-04T03:57:55.759Z,16.80
2018-05-04T04:00:34.999Z,16.77
2018-05-04T04:03:14.415Z,16.72
2018-05-04T04:05:41.960Z,16.76
2018-05-04T04:08:09.513Z,16.90
2018-05-04T04:10:37.077Z,17.00
2018-05-04T04:13:04.626Z,17.04
2018-05-04T04:15:32.203Z,17.06
2018-05-04T04:17:59.817Z,17.16
2018-05-04T04:20:27.319Z,17.15
2018-05-04T04:22:54.897Z,17.10
2018-05-04T04:25:22.443Z,17.15
2018-05-04T04:27:50.912Z,17.13
2018-05-04T04:30:18.632Z,17.19
2018-05-04T04:32:46.182Z,17.36
2018-05-04T04:35:13.720Z,17.49
2018-05-04T04:37:41.301Z,17.77
2018-05-04T04:40:08.851Z,18.07
2018-05-04T04:42:36.445Z,18.47
2018-05-04T04:45:04.136Z,18.52
2018-05-04T04:47:31.686Z,18.50
2018-05-04T04:49:59.230Z,18.42
2018-05-04T04:52:27.004Z,18.37
2018-05-04T04:54:54.540Z,18.32
2018-05-04T04:57:22.081Z,18.17
2018-05-04T04:59:49.653Z,18.02
2018-05-04T05:02:17.191Z,18.62
2018-05-04T05:04:44.756Z,18.75
2018-05-04T05:07:12.332Z,18.87
2018-05-04T05:09:39.881Z,18.92
2018-05-04T05:12:07.441Z,18.83
2018-05-04T05:14:35.014Z,18.78
2018-05-04T05:17:02.570Z,18.89
2018-05-04T05:19:30.123Z,18.84
2018-05-04T05:21:57.865Z,18.90
2018-05-04T05:24:25.411Z,19.33
2018-05-04T05:26:52.956Z,19.95
2018-05-04T05:29:20.634Z,20.63
2018-05-04T05:31:48.183Z,20.89
2018-05-04T05:34:15.733Z,21.69
2018-05-04T05:36:43.541Z,22.00
2018-05-04T05:39:11.101Z,22.13
2018-05-04T05:41:38.663Z,21.49
2018-05-04T05:44:06.232Z,21.47
2018-05-04T05:46:33.776Z,21.57
2018-05-04T05:49:01.341Z,21.19
2018-05-04T05:51:28.953Z,21.24
2018-05-04T05:53:56.520Z,21.40
2018-05-04T05:56:24.081Z,21.20
2018-05-04T05:58:51.995Z,20.94
2018-05-04T06:01:19.552Z,20.77
2018-05-04T06:03:47.104Z,20.59
2018-05-04T06:06:15.019Z,20.73
2018-05-04T06:08:42.562Z,21.25
2018-05-04T06:11:10.119Z,21.30
2018-05-04T06:13:37.848Z,21.89
2018-05-04T06:16:05.408Z,21.96
2018-05-04T06:18:32.947Z,21.75
2018-05-04T06:21:00.523Z,21.20
2018-05-04T06:23:28.065Z,21.04
2018-05-04T06:25:55.603Z,21.73
2018-05-04T06:28:23.194Z,22.04
2018-05-04T06:30:50.746Z,22.18
2018-05-04T06:33:18.330Z,22.16
2018-05-04T06:35:45.912Z,22.49
2018-05-04T06:38:13.451Z,22.56
2018-05-04T06:40:41.004Z,22.39
2018-05-04T06:43:08.919Z,22.33
2018-05-04T06:45:36.454Z,22.50
2018-05-04T06:48:04.009Z,22.78
2018-05-04T06:50:31.598Z,22.73
2018-05-04T06:52:59.148Z,22.60
2018-05-04T06:55:26.700Z,22.65
2018-05-04T06:57:54.317Z,22.37
2018-05-04T07:00:21.863Z,22.45
2018-05-04T07:02:49.432Z,22.59
2018-05-04T07:05:17.162Z,22.75
2018-05-04T07:07:44.727Z,22.84
2018-05-04T07:10:12.278Z,22.53
2018-05-04T07:12:39.833Z,22.67
2018-05-04T07:15:07.408Z,22.18
2018-05-04T07:17:35.156Z,22.31
2018-05-04T07:20:02.704Z,22.03
2018-05-04T07:22:30.248Z,21.77
2018-05-04T07:24:57.824Z,22.16
2018-05-04T07:27:25.378Z,22.40
2018-05-04T07:29:52.928Z,22.35
2018-05-04T07:32:20.507Z,22.51
2018-05-04T07:34:48.049Z,22.50
2018-05-04T07:37:15.609Z,22.86
2018-05-04T07:39:43.309Z,22.88
2018-05-04T07:42:10.867Z,22.79
2018-05-04T07:44:38.445Z,22.84
2018-05-04T07:47:06.044Z,22.79
2018-05-04T07:49:33.624Z,22.71
2018-05-04T07:52:01.167Z,22.68
2018-05-04T07:54:28.912Z,22.82
2018-05-04T07:56:56.480Z,23.17
2018-05-04T07:59:24.035Z,23.55
2018-05-04T08:01:51.739Z,23.46
2018-05-04T08:04:19.303Z,23.23
2018-05-04T08:06:46.874Z,23.12
2018-05-04T08:09:14.461Z,23.17
2018-05-04T08:11:42.025Z,23.51
2018-05-04T08:14:09.581Z,23.74
2018-05-04T08:16:37.174Z,23.82
2018-05-04T08:19:04.739Z,23.84
2018-05-04T08:21:32.279Z,23.60
2018-05-04T08:23:59.970Z,24.02
2018-05-04T08:26:27.522Z,24.07
2018-05-04T08:28:55.106Z,23.94
2018-05-04T08:31:22.691Z,23.66
2018-05-04T08:33:50.235Z,23.56
2018-05-04T08:36:17.789Z,23.33
2018-05-04T08:38:45.469Z,23.13
2018-05-04T08:41:13.018Z,22.76
2018-05-04T08:43:40.583Z,22.76
2018-05-04T08:46:08.213Z,22.79
2018-05-04T08:48:35.747Z,23.02
2018-05-04T08:51:03.324Z,23.03
2018-05-04T08:53:30.920Z,23.32
2018-05-04T08:55:58.483Z,23.54
2018-05-04T08:58:26.031Z,23.63
2018-05-04T09:00:53.613Z,23.54
2018-05-04T09:03:21.172Z,23.85
2018-05-04T09:05:48.743Z,24.40
2018-05-04T09:08:16.345Z,24.39
2018-05-04T09:10:43.889Z,24.43
2018-05-04T09:13:11.453Z,24.47
2018-05-04T09:15:39.035Z,24.67
2018-05-04T09:18:06.594Z,24.55
2018-05-04T09:20:34.166Z,24.57
2018-05-04T09:23:01.753Z,24.69
2018-05-04T09:25:29.315Z,24.89
2018-05-04T09:27:56.852Z,24.97
2018-05-04T09:30:24.426Z,24.73
2018-05-04T09:32:52.705Z,24.75
2018-05-04T09:35:20.256Z,24.85
2018-05-04T09:37:47.834Z,24.89
2018-05-04T09:40:15.404Z,24.95
2018-05-04T09:42:42.953Z,24.87
2018-05-04T09:45:10.663Z,24.87
2018-05-04T09:47:38.247Z,24.88
2018-05-04T09:50:05.822Z,24.90
2018-05-04T09:52:33.409Z,24.94
2018-05-04T09:55:00.963Z,24.91
2018-05-04T09:57:28.508Z,24.49
2018-05-04T09:59:56.103Z,24.32
2018-05-04T10:02:23.667Z,24.18
2018-05-04T10:04:51.227Z,24.25
2018-05-04T10:07:18.956Z,24.22
2018-05-04T10:09:46.497Z,24.52
2018-05-04T10:12:14.046Z,24.68
2018-05-04T10:14:41.767Z,24.59
2018-05-04T10:17:09.324Z,24.71
2018-05-04T10:19:36.881Z,25.03
2018-05-04T10:22:04.560Z,24.92
2018-05-04T10:24:32.115Z,24.99
2018-05-04T10:26:59.661Z,24.92
2018-05-04T10:29:27.267Z,24.93
2018-05-04T10:31:54.824Z,24.71
2018-05-04T10:34:22.392Z,24.52
2018-05-04T10:36:49.968Z,24.59
2018-05-04T10:39:17.538Z,24.83
2018-05-04T10:41:45.100Z,25.05
2018-05-04T10:44:12.788Z,24.99
2018-05-04T10:46:40.361Z,25.09
2018-05-04T10:49:07.911Z,24.83
2018-05-04T10:51:35.497Z,24.60
2018-05-04T10:54:03.070Z,24.47
2018-05-04T10:56:30.667Z,24.47
2018-05-04T10:58:58.398Z,24.47
2018-05-04T11:01:25.935Z,24.26
2018-05-04T11:03:53.480Z,24.29
2018-05-04T11:06:21.040Z,24.38
2018-05-04T11:08:48.603Z,24.46
2018-05-04T11:11:16.162Z,24.40
2018-05-04T11:13:43.916Z,24.25
2018-05-04T11:16:11.452Z,24.30
2018-05-04T11:18:39.021Z,24.57
2018-05-04T11:21:06.761Z,24.56
2018-05-04T11:23:34.308Z,25.01
2018-05-04T11:26:01.922Z,25.16
2018-05-04T11:28:29.500Z,25.28
2018-05-04T11:30:57.111Z,25.51
2018-05-04T11:33:24.640Z,25.39
2018-05-04T11:35:52.345Z,25.51
2018-05-04T11:38:19.880Z,25.56
2018-05-04T11:40:47.444Z,25.74
2018-05-04T11:43:15.187Z,25.91
2018-05-04T11:45:42.747Z,26.30
2018-05-04T11:48:10.309Z,26.36
2018-05-04T11:50:38.031Z,26.40
2018-05-04T11:53:05.571Z,26.62
2018-05-04T11:55:33.120Z,26.38
2018-05-04T11:58:01.026Z,26.42
2018-05-04T12:00:28.591Z,26.48
2018-05-04T12:02:56.138Z,26.53
2018-05-04T12:05:23.727Z,26.23
2018-05-04T12:07:51.280Z,26.14
2018-05-04T12:10:18.826Z,25.95
2018-05-04T12:12:46.460Z,25.91
2018-05-04T12:15:14.008Z,26.19
2018-05-04T12:17:41.704Z,26.23
2018-05-04T12:20:09.244Z,26.29
2018-05-04T12:22:36.801Z,26.06
2018-05-04T12:25:04.382Z,25.81
2018-05-04T12:27:31.925Z,25.82
2018-05-04T12:29:59.461Z,25.68
2018-05-04T12:32:27.228Z,25.47
2018-05-04T12:34:54.788Z,25.43
2018-05-04T12:37:22.609Z,25.24
2018-05-04T12:39:50.176Z,25.22
2018-05-04T12:42:17.725Z,25.35
2018-05-04T12:44:45.273Z,25.30
2018-05-04T12:47:12.983Z,25.17
2018-05-04T12:49:40.526Z,25.25
2018-05-04T12:52:08.073Z,25.31
2018-05-04T12:54:35.648Z,25.38
2018-05-04T12:57:03.197Z,25.23
2018-05-04T12:59:30.732Z,25.21
2018-05-04T13:01:58.309Z,25.22
2018-05-04T13:04:25.895Z,25.24
2018-05-04T13:06:53.419Z,25.36
2018-05-04T13:09:20.992Z,25.43
2018-05-04T13:11:48.571Z,25.39
2018-05-04T13:14:16.144Z,25.50
2018-05-04T13:16:43.756Z,25.24
2018-05-04T13:19:11.299Z,24.62
2018-05-04T13:21:38.848Z,24.14
2018-05-04T13:24:06.568Z,24.16
2018-05-04T13:26:34.105Z,24.09
2018-05-04T13:29:01.721Z,23.92
2018-05-04T13:31:29.250Z,23.57
2018-05-04T13:33:56.822Z,23.41
2018-05-04T13:36:24.377Z,23.25
2018-05-04T13:38:51.949Z,23.10
2018-05-04T13:41:19.504Z,23.06
2018-05-04T13:43:47.060Z,22.88
2018-05-04T13:46:14.635Z,22.80
2018-05-04T13:48:42.185Z,22.76
2018-05-04T13:51:09.747Z,22.74
2018-05-04T13:53:37.481Z,22.60
2018-05-04T13:56:05.062Z,22.58
2018-05-04T13:58:32.619Z,22.59
2018-05-04T14:01:00.549Z,22.59
2018-05-04T14:03:28.117Z,22.61
2018-05-04T14:05:55.696Z,22.55
2018-05-04T14:08:23.408Z,22.53
2018-05-04T14:10:50.957Z,22.45
2018-05-04T14:13:18.502Z,22.33
2018-05-04T14:15:46.101Z,22.13
2018-05-04T14:18:13.662Z,22.13
2018-05-04T14:20:41.209Z,22.03
2018-05-04T14:23:08.784Z,21.84
2018-05-04T14:25:36.354Z,21.54
2018-05-04T14:28:03.900Z,21.50
2018-05-04T14:30:31.486Z,21.45
2018-05-04T14:32:59.041Z,21.23
2018-05-04T14:35:26.605Z,21.05
2018-05-04T14:37:54.195Z,20.87
2018-05-04T14:40:21.739Z,20.52
2018-05-04T14:42:49.301Z,20.37
2018-05-04T14:45:17.219Z,20.22
2018-05-04T14:47:44.768Z,20.13
2018-05-04T14:50:12.336Z,20.25
2018-05-04T14:52:40.010Z,20.37
2018-05-04T14:55:07.580Z,20.47
2018-05-04T14:57:35.147Z,20.58
2018-05-04T15:00:02.737Z,20.72
2018-05-04T15:02:30.299Z,20.90
2018-05-04T15:04:57.855Z,20.95
2018-05-04T15:07:25.434Z,20.57
2018-05-04T15:09:53.015Z,20.31
2018-05-04T15:12:20.556Z,20.21
2018-05-04T15:14:48.150Z,20.15
2018-05-04T15:17:15.729Z,20.08
2018-05-04T15:19:43.276Z,20.07
2018-05-04T15:22:10.887Z,20.15
2018-05-04T15:24:38.436Z,20.27
2018-05-04T15:27:05.992Z,20.46
2018-05-04T15:29:33.644Z,20.64
2018-05-04T15:32:01.193Z,20.80
2018-05-04T15:34:28.775Z,20.95
2018-05-04T15:36:56.513Z,21.05
2018-05-04T15:39:24.065Z,21.15
2018-05-04T15:41:51.605Z,21.24
2018-05-04T15:44:19.168Z,21.32
2018-05-04T15:46:46.731Z,21.36
2018-05-04T15:49:18.720Z,21.35
2018-05-04T15:52:04.237Z,21.26
2018-05-04T15:54:31.783Z,21.20
2018-05-04T15:56:59.628Z,21.15
2018-05-04T15:59:27.325Z,21.11
2018-05-04T16:01:54.870Z,21.06
2018-05-04T16:04:22.416Z,20.91
2018-05-04T16:06:50.192Z,20.80
2018-05-04T16:09:17.737Z,20.79
2018-05-04T16:11:45.294Z,20.89
2018-05-04T16:14:12.884Z,20.89
2018-05-04T16:16:40.443Z,20.88
2018-05-04T16:19:07.996Z,20.90
2018-05-04T16:21:35.601Z,20.93
2018-05-04T16:24:03.145Z,20.87
2018-05-04T16:26:30.693Z,20.86
2018-05-04T16:28:58.304Z,20.92
2018-05-04T16:31:25.869Z,20.98
2018-05-04T16:33:53.419Z,20.97
2018-05-04T16:36:21.123Z,21.00
2018-05-04T16:38:48.705Z,21.07
2018-05-04T16:41:16.262Z,21.14
2018-05-04T16:43:43.981Z,21.17
2018-05-04T16:46:17.102Z,20.72
2018-05-04T16:48:50.155Z,20.29
2018-05-04T16:51:17.745Z,19.87
2018-05-04T16:53:45.321Z,19.61
2018-05-04T16:56:12.910Z,19.38
2018-05-04T16:58:40.486Z,19.25
2018-05-04T17:01:08.035Z,19.16
2018-05-04T17:03:35.620Z,19.07
2018-05-04T17:06:03.203Z,18.98
2018-05-04T17:08:30.777Z,18.78
2018-05-04T17:10:58.371Z,18.69
2018-05-04T17:13:25.947Z,18.70
2018-05-04T17:15:53.561Z,18.64
2018-05-04T17:18:21.114Z,18.61
2018-05-04T17:20:48.681Z,18.66
2018-05-04T17:23:16.241Z,18.52
2018-05-04T17:25:43.864Z,18.50
2018-05-04T17:28:11.410Z,18.51
2018-05-04T17:30:38.959Z,18.52
2018-05-04T17:33:06.870Z,18.48
2018-05-04T17:35:34.419Z,18.33
2018-05-04T17:38:01.971Z,18.30
2018-05-04T17:40:29.792Z,18.25
2018-05-04T17:42:57.904Z,18.27
2018-05-04T17:45:25.482Z,18.28
2018-05-04T17:47:53.061Z,18.28
2018-05-04T17:50:20.613Z,18.30
2018-05-04T17:52:48.152Z,18.26
2018-05-04T17:55:15.724Z,18.24
2018-05-04T17:57:43.288Z,18.23
2018-05-04T18:00:10.831Z,18.23
2018-05-04T18:02:38.533Z,18.21
2018-05-04T18:05:06.110Z,18.15
2018-05-04T18:07:33.651Z,18.17
2018-05-04T18:10:01.446Z,18.28
2018-05-04T18:12:29.031Z,18.25
2018-05-04T18:14:56.592Z,18.15
2018-05-04T18:17:24.342Z,18.12
2018-05-04T18:19:51.962Z,18.13
2018-05-04T18:22:19.547Z,18.07
2018-05-04T18:24:47.504Z,18.06
2018-05-04T18:27:15.086Z,18.06
2018-05-04T18:29:42.636Z,18.02
2018-05-04T18:32:10.377Z,17.94
2018-05-04T18:34:37.946Z,17.82
2018-05-04T18:37:05.537Z,17.82
2018-05-04T18:39:33.233Z,17.78
2018-05-04T18:42:00.804Z,17.78
2018-05-04T18:44:28.367Z,17.75
2018-05-04T18:46:56.119Z,17.67
2018-05-04T18:49:23.672Z,17.74
2018-05-04T18:51:51.229Z,17.72
2018-05-04T18:54:18.954Z,17.79
2018-05-04T18:56:46.614Z,17.80
2018-05-04T18:59:14.187Z,17.86
2018-05-04T19:01:41.956Z,17.94
2018-05-04T19:04:09.568Z,18.04
2018-05-04T19:06:37.168Z,18.15
2018-05-04T19:09:04.983Z,18.23
2018-05-04T19:11:32.598Z,18.43
2018-05-04T19:14:00.138Z,18.55
2018-05-04T19:16:27.709Z,18.56
2018-05-04T19:18:55.268Z,18.54
2018-05-04T19:21:22.821Z,18.49
2018-05-04T19:23:50.411Z,18.56
2018-05-04T19:26:18.007Z,18.60
2018-05-04T19:28:45.555Z,18.53
2018-05-04T19:31:13.196Z,18.46
2018-05-04T19:33:40.739Z,18.41
2018-05-04T19:36:09.253Z,18.45
2018-05-04T19:38:37.178Z,18.47
2018-05-04T19:41:04.743Z,18.59
2018-05-04T19:43:32.325Z,18.65
2018-05-04T19:46:00.231Z,18.72
2018-05-04T19:48:27.810Z,18.77
2018-05-04T19:50:55.386Z,18.78
2018-05-04T19:53:22.962Z,18.86
2018-05-04T19:55:50.511Z,18.97
2018-05-04T19:58:18.071Z,19.02
2018-05-04T20:00:46.029Z,19.14
2018-05-04T20:03:13.584Z,19.18
2018-05-04T20:05:41.119Z,19.20
2018-05-04T20:08:08.856Z,19.22
2018-05-04T20:10:36.436Z,19.25
2018-05-04T20:13:04.012Z,19.30
2018-05-04T20:15:31.603Z,19.34
2018-05-04T20:17:59.148Z,19.36
2018-05-04T20:20:26.753Z,19.32
2018-05-04T20:22:54.453Z,19.40
2018-05-04T20:25:22.004Z,19.44
2018-05-04T20:27:49.536Z,19.50
2018-05-04T20:30:17.096Z,19.47
2018-05-04T20:32:44.632Z,19.52
2018-05-04T20:35:12.191Z,19.50
2018-05-04T20:37:39.817Z,19.54
2018-05-04T20:40:07.391Z,19.56
2018-05-04T20:42:34.982Z,19.60
2018-05-04T20:45:02.563Z,19.63
2018-05-04T20:47:30.115Z,19.63
2018-05-04T20:49:57.705Z,19.61
2018-05-04T20:52:25.273Z,19.63
2018-05-04T20:54:52.852Z,19.66
2018-05-04T20:57:20.416Z,19.69
2018-05-04T20:59:48.080Z,19.68
2018-05-04T21:02:15.614Z,19.72
2018-05-04T21:04:43.181Z,19.74
2018-05-04T21:07:10.773Z,19.76
2018-05-04T21:09:38.353Z,19.80
2018-05-04T21:12:05.895Z,19.79
2018-05-04T21:14:33.694Z,19.77
2018-05-04T21:17:01.245Z,19.84
2018-05-04T21:19:28.788Z,19.92
2018-05-04T21:21:56.359Z,19.98
2018-05-04T21:24:23.910Z,20.00
2018-05-04T21:26:51.455Z,20.01
2018-05-04T21:29:19.039Z,19.94
2018-05-04T21:31:46.599Z,19.97
2018-05-04T21:34:14.142Z,19.99
2018-05-04T21:36:41.888Z,20.02
2018-05-04T21:39:09.458Z,20.08
2018-05-04T21:41:37.022Z,20.10
2018-05-04T21:44:04.742Z,20.15
2018-05-04T21:46:32.276Z,20.17
2018-05-04T21:48:59.826Z,20.15
2018-05-04T21:51:27.425Z,20.18
2018-05-04T21:53:54.974Z,20.15
2018-05-04T21:56:22.503Z,20.20
2018-05-04T21:58:50.082Z,20.21
2018-05-04T22:01:17.636Z,20.23
2018-05-04T22:03:45.164Z,20.27
2018-05-04T22:06:12.737Z,20.32
2018-05-04T22:08:40.272Z,20.34
2018-05-04T22:11:07.824Z,20.28
2018-05-04T22:13:35.373Z,20.21
2018-05-04T22:16:02.935Z,19.97
2018-05-04T22:18:30.521Z,19.81
2018-05-04T22:20:58.113Z,19.59
2018-05-04T22:23:25.660Z,19.42
2018-05-04T22:25:53.245Z,19.31
2018-05-04T22:28:20.789Z,19.00
2018-05-04T22:30:48.340Z,18.90
2018-05-04T22:33:15.903Z,18.82
2018-05-04T22:35:43.469Z,18.74
2018-05-04T22:38:11.020Z,18.60
2018-05-04T22:40:38.615Z,18.52
2018-05-04T22:43:06.208Z,18.41
2018-05-04T22:45:33.769Z,18.32
2018-05-04T22:48:01.460Z,18.25
2018-05-04T22:50:29.021Z,18.20
2018-05-04T22:52:56.568Z,18.14
2018-05-04T22:55:24.241Z,18.02
2018-05-04T22:57:51.779Z,17.99
2018-05-04T23:00:19.368Z,17.93
2018-05-04T23:02:47.450Z,17.74
2018-05-04T23:05:14.996Z,17.70
2018-05-04T23:07:42.570Z,17.66
2018-05-04T23:10:10.322Z,17.62
2018-05-04T23:12:37.874Z,17.56
2018-05-04T23:15:05.416Z,17.57
2018-05-04T23:17:33.186Z,17.54
2018-05-04T23:20:00.746Z,17.47
2018-05-04T23:22:29.256Z,17.45
2018-05-04T23:24:56.991Z,17.39
2018-05-04T23:27:24.547Z,17.34
2018-05-04T23:29:52.118Z,17.24
2018-05-04T23:32:19.684Z,17.20
2018-05-04T23:34:47.265Z,17.12
2018-05-04T23:37:14.803Z,17.11
2018-05-04T23:39:43.052Z,17.07
2018-05-04T23:42:10.602Z,17.01
2018-05-04T23:44:38.142Z,16.95
2018-05-04T23:47:05.745Z,16.89
2018-05-04T23:49:33.296Z,16.81
2018-05-04T23:52:00.849Z,16.83
2018-05-04T23:54:28.420Z,16.75
2018-05-04T23:56:55.971Z,16.70
2018-05-04T23:59:23.524Z,16.66
